createdAt,value
2022-09-28T00:01:20.689Z,82.93
2022-09-28T00:03:50.571Z,83.77
2022-09-28T00:06:24.302Z,83.63
2022-09-28T00:08:52.203Z,82.68
2022-09-28T00:11:22.411Z,83.01
2022-09-28T00:13:53.422Z,83.55
2022-09-28T00:16:23.986Z,83.20
2022-09-28T00:18:51.348Z,82.88
2022-09-28T00:21:25.442Z,82.72
2022-09-28T00:24:15.672Z,83.03
2022-09-28T00:26:55.306Z,83.24
2022-09-28T00:32:13.334Z,83.48
2022-09-28T00:34:45.810Z,83.70
2022-09-28T00:37:15.015Z,83.63
2022-09-28T00:39:42.470Z,82.99
2022-09-28T00:42:22.826Z,83.19
2022-09-28T00:44:51.730Z,83.42
2022-09-28T00:47:29.275Z,83.41
2022-09-28T00:50:04.373Z,83.68
2022-09-28T00:52:42.706Z,83.72
2022-09-28T00:55:44.983Z,83.71
2022-09-28T00:58:19.931Z,83.83
2022-09-28T01:00:46.770Z,84.62
2022-09-28T01:03:14.294Z,85.23
2022-09-28T01:05:41.631Z,85.92
2022-09-28T01:08:10.596Z,85.51
2022-09-28T01:10:40.540Z,85.64
2022-09-28T01:13:07.255Z,85.84
2022-09-28T01:15:49.322Z,86.04
2022-09-28T01:18:45.415Z,85.98
2022-09-28T01:21:21.383Z,86.14
2022-09-28T01:24:30.732Z,86.37
2022-09-28T01:27:26.658Z,85.97
2022-09-28T01:30:06.071Z,86.14
2022-09-28T01:33:06.682Z,85.65
2022-09-28T01:36:04.163Z,85.61
2022-09-28T01:38:42.607Z,86.20
2022-09-28T01:41:10.141Z,86.02
2022-09-28T01:43:43.105Z,85.74
2022-09-28T01:46:29.192Z,86.03
2022-09-28T01:49:04.859Z,86.33
2022-09-28T01:51:38.990Z,87.10
2022-09-28T01:54:14.649Z,87.24
2022-09-28T01:56:57.004Z,87.28
2022-09-28T01:59:30.229Z,87.22
2022-09-28T02:02:22.879Z,87.39
2022-09-28T02:05:18.502Z,88.49
2022-09-28T02:07:57.380Z,88.36
2022-09-28T02:10:35.830Z,88.21
2022-09-28T02:13:13.681Z,88.52
2022-09-28T02:15:40.269Z,88.98
2022-09-28T02:18:07.927Z,88.71
2022-09-28T02:20:38.895Z,89.37
2022-09-28T02:23:05.628Z,89.10
2022-09-28T02:25:42.823Z,90.05
2022-09-28T02:28:15.698Z,89.57
2022-09-28T02:30:44.711Z,89.78
2022-09-28T02:33:26.875Z,89.78
2022-09-28T02:35:54.303Z,89.92
2022-09-28T02:38:20.925Z,89.98
2022-09-28T02:41:04.847Z,90.28
2022-09-28T02:43:56.110Z,90.21
2022-09-28T02:46:45.935Z,90.66
2022-09-28T02:49:25.767Z,90.89
2022-09-28T02:52:26.215Z,91.27
2022-09-28T02:55:39.974Z,90.68
2022-09-28T02:58:34.001Z,90.25
2022-09-28T03:01:35.086Z,90.42
2022-09-28T03:04:37.535Z,91.01
2022-09-28T03:07:24.125Z,91.87
2022-09-28T03:10:06.373Z,91.98
2022-09-28T03:12:34.246Z,91.45
2022-09-28T03:15:13.722Z,91.27
2022-09-28T03:17:40.347Z,90.80
2022-09-28T03:20:07.522Z,90.97
2022-09-28T03:22:34.084Z,90.79
2022-09-28T03:25:00.637Z,90.82
2022-09-28T03:27:27.228Z,91.55
2022-09-28T03:29:53.798Z,91.47
2022-09-28T03:32:20.393Z,91.06
2022-09-28T03:34:47.087Z,91.38
2022-09-28T03:37:13.730Z,91.85
2022-09-28T03:39:40.368Z,92.84
2022-09-28T03:42:07.113Z,92.52
2022-09-28T03:44:33.686Z,93.22
2022-09-28T03:47:00.242Z,93.10
2022-09-28T03:49:26.830Z,93.68
2022-09-28T03:51:53.453Z,93.21
2022-09-28T03:54:39.614Z,93.35
2022-09-28T03:57:13.293Z,92.97
2022-09-28T03:59:39.879Z,93.47
2022-09-28T04:02:06.427Z,93.62
2022-09-28T04:04:33.236Z,94.10
2022-09-28T04:07:00.217Z,93.26
2022-09-28T04:09:26.796Z,93.60
2022-09-28T04:12:03.988Z,93.47
2022-09-28T04:14:30.957Z,93.57
2022-09-28T04:16:57.594Z,94.07
2022-09-28T04:19:24.370Z,93.92
2022-09-28T04:21:51.982Z,93.11
2022-09-28T04:24:20.242Z,92.97
2022-09-28T04:26:46.820Z,92.75
2022-09-28T04:29:16.554Z,92.04
2022-09-28T04:31:50.705Z,92.38
2022-09-28T04:34:20.961Z,92.19
2022-09-28T04:36:48.974Z,93.19
2022-09-28T04:39:19.453Z,93.87
2022-09-28T04:41:48.983Z,92.89
2022-09-28T04:44:15.997Z,93.01
2022-09-28T04:46:42.554Z,92.41
2022-09-28T04:49:32.949Z,91.94
2022-09-28T04:52:55.836Z,92.38
2022-09-28T04:55:32.534Z,92.97
2022-09-28T04:58:02.786Z,92.81
2022-09-28T05:00:35.869Z,92.78
2022-09-28T05:03:02.689Z,93.21
2022-09-28T05:05:29.217Z,93.62
2022-09-28T05:07:59.193Z,93.79
2022-09-28T05:10:26.708Z,93.29
2022-09-28T05:12:53.390Z,92.67
2022-09-28T05:15:19.942Z,92.52
2022-09-28T05:17:46.465Z,92.40
2022-09-28T05:20:13.112Z,92.54
2022-09-28T05:22:39.697Z,92.35
2022-09-28T05:25:06.590Z,92.93
2022-09-28T05:27:33.097Z,93.29
2022-09-28T05:29:59.696Z,93.02
2022-09-28T05:32:26.250Z,92.86
2022-09-28T05:34:52.825Z,92.53
2022-09-28T05:37:19.359Z,92.48
2022-09-28T05:39:45.859Z,92.87
2022-09-28T05:42:12.465Z,93.07
2022-09-28T05:44:39.043Z,92.65
2022-09-28T05:47:05.724Z,92.72
2022-09-28T05:49:32.542Z,92.81
2022-09-28T05:51:59.149Z,92.87
2022-09-28T05:54:28.917Z,92.97
2022-09-28T05:56:55.553Z,93.15
2022-09-28T05:59:22.133Z,94.03
2022-09-28T06:01:48.799Z,92.75
2022-09-28T06:04:16.395Z,92.39
2022-09-28T06:06:43.153Z,92.81
2022-09-28T06:09:10.007Z,92.79
2022-09-28T06:11:36.613Z,92.65
2022-09-28T06:14:04.018Z,92.05
2022-09-28T06:16:31.121Z,92.08
2022-09-28T06:18:57.967Z,92.08
2022-09-28T06:21:24.718Z,91.51
2022-09-28T06:23:51.677Z,91.17
2022-09-28T06:26:19.869Z,90.62
2022-09-28T06:28:47.130Z,90.87
2022-09-28T06:31:13.989Z,89.72
2022-09-28T06:33:42.043Z,89.72
2022-09-28T06:36:10.657Z,89.60
2022-09-28T06:38:38.155Z,90.55
2022-09-28T06:41:05.389Z,90.38
2022-09-28T06:43:34.575Z,90.19
2022-09-28T06:46:02.813Z,90.56
2022-09-28T06:48:29.633Z,91.45
2022-09-28T06:50:56.185Z,92.24
2022-09-28T06:53:23.005Z,92.68
2022-09-28T06:55:49.705Z,92.66
2022-09-28T06:58:19.684Z,92.71
2022-09-28T07:00:50.171Z,93.34
2022-09-28T07:03:23.065Z,91.74
2022-09-28T07:05:53.906Z,91.60
2022-09-28T07:08:25.929Z,90.91
2022-09-28T07:10:56.926Z,91.73
2022-09-28T07:13:48.474Z,92.90
2022-09-28T07:16:16.102Z,94.35
2022-09-28T07:18:42.802Z,91.90
2022-09-28T07:21:14.418Z,92.42
2022-09-28T07:23:53.945Z,92.75
2022-09-28T07:26:24.401Z,91.37
2022-09-28T07:28:52.324Z,91.68
2022-09-28T07:31:18.918Z,91.82
2022-09-28T07:33:47.100Z,91.46
2022-09-28T07:36:17.792Z,90.75
2022-09-28T07:38:44.356Z,91.22
2022-09-28T07:41:16.726Z,89.96
2022-09-28T07:43:45.374Z,89.42
2022-09-28T07:46:12.231Z,88.75
2022-09-28T07:48:42.157Z,88.48
2022-09-28T07:51:09.902Z,88.54
2022-09-28T07:53:38.358Z,86.65
2022-09-28T07:56:09.281Z,86.41
2022-09-28T07:58:39.241Z,82.64
2022-09-28T08:01:12.255Z,84.17
2022-09-28T08:03:39.491Z,84.00
2022-09-28T08:06:11.109Z,82.46
2022-09-28T08:08:37.867Z,85.55
2022-09-28T08:11:07.227Z,85.11
2022-09-28T08:13:33.889Z,79.16
2022-09-28T08:16:02.183Z,82.13
2022-09-28T08:18:30.067Z,79.61
2022-09-28T08:21:15.421Z,82.18
2022-09-28T08:23:42.083Z,80.57
2022-09-28T08:26:13.283Z,82.05
2022-09-28T08:28:43.443Z,81.79
2022-09-28T08:31:10.104Z,80.92
2022-09-28T08:33:37.094Z,79.48
2022-09-28T08:36:06.928Z,80.02
2022-09-28T08:38:33.458Z,80.02
2022-09-28T08:41:39.886Z,79.84
2022-09-28T08:44:24.111Z,79.08
2022-09-28T08:47:05.562Z,78.91
2022-09-28T08:49:43.112Z,77.82
2022-09-28T08:52:25.928Z,74.53
2022-09-28T08:55:06.309Z,77.20
2022-09-28T08:57:50.713Z,71.99
2022-09-28T09:00:33.930Z,73.65
2022-09-28T09:03:09.341Z,76.36
2022-09-28T09:06:09.452Z,74.16
2022-09-28T09:09:15.336Z,74.60
2022-09-28T09:12:04.053Z,76.16
2022-09-28T09:14:51.090Z,75.07
2022-09-28T09:17:47.835Z,72.59
2022-09-28T09:20:41.231Z,71.53
2022-09-28T09:23:34.682Z,73.92
2022-09-28T09:26:25.532Z,73.44
2022-09-28T09:29:27.957Z,72.16
2022-09-28T09:32:16.205Z,71.59
2022-09-28T09:35:14.936Z,73.77
2022-09-28T09:38:16.379Z,69.84
2022-09-28T09:41:40.816Z,70.80
2022-09-28T09:44:24.989Z,68.22
2022-09-28T09:47:38.084Z,67.31
2022-09-28T09:50:29.783Z,66.84
2022-09-28T09:53:24.291Z,68.14
2022-09-28T09:56:00.371Z,70.19
2022-09-28T09:58:46.318Z,71.18
2022-09-28T10:01:18.986Z,70.61
2022-09-28T10:03:48.644Z,70.69
2022-09-28T10:06:37.497Z,70.09
2022-09-28T10:09:13.857Z,70.51
2022-09-28T10:11:46.061Z,70.64
2022-09-28T10:14:22.127Z,70.50
2022-09-28T10:16:53.182Z,70.48
2022-09-28T10:19:33.362Z,68.77
2022-09-28T10:22:04.863Z,68.87
2022-09-28T10:24:38.553Z,65.74
2022-09-28T10:27:16.989Z,66.30
2022-09-28T10:29:54.153Z,65.65
2022-09-28T10:32:27.296Z,61.85
2022-09-28T10:35:16.913Z,63.02
2022-09-28T10:37:52.229Z,63.92
2022-09-28T10:40:47.826Z,63.57
2022-09-28T10:43:34.545Z,64.95
2022-09-28T10:46:07.549Z,65.47
2022-09-28T10:48:51.332Z,64.15
2022-09-28T10:51:18.497Z,62.63
2022-09-28T10:54:04.036Z,65.89
2022-09-28T10:56:37.436Z,64.28
2022-09-28T10:59:24.218Z,65.20
2022-09-28T11:02:18.536Z,57.08
2022-09-28T11:04:55.188Z,61.68
2022-09-28T11:07:32.618Z,61.84
2022-09-28T11:10:01.340Z,58.50
2022-09-28T11:12:43.241Z,57.51
2022-09-28T11:15:25.808Z,59.10
2022-09-28T11:17:52.876Z,60.16
2022-09-28T11:20:27.727Z,57.61
2022-09-28T11:23:16.755Z,61.31
2022-09-28T11:25:43.815Z,59.35
2022-09-28T11:28:24.809Z,56.17
2022-09-28T11:30:53.336Z,58.07
2022-09-28T11:33:30.574Z,56.22
2022-09-28T11:36:18.242Z,56.59
2022-09-28T11:39:32.292Z,54.28
2022-09-28T11:42:17.356Z,57.28
2022-09-28T11:44:49.405Z,57.29
2022-09-28T11:47:41.279Z,57.20
2022-09-28T11:50:45.045Z,55.81
2022-09-28T11:53:30.901Z,57.62
2022-09-28T11:56:22.301Z,56.52
2022-09-28T11:58:59.898Z,55.75
2022-09-28T12:01:53.258Z,54.71
2022-09-28T12:04:38.938Z,51.62
2022-09-28T12:07:31.446Z,53.84
2022-09-28T12:10:17.264Z,53.84
2022-09-28T12:12:55.092Z,54.79
2022-09-28T12:15:38.197Z,52.21
2022-09-28T12:18:54.977Z,55.87
2022-09-28T12:21:24.821Z,52.11
2022-09-28T12:24:00.659Z,50.57
2022-09-28T12:26:47.086Z,52.86
2022-09-28T12:29:38.716Z,53.48
2022-09-28T12:32:29.056Z,52.20
2022-09-28T12:34:57.948Z,53.97
2022-09-28T12:37:52.551Z,55.99
2022-09-28T12:40:47.073Z,56.65
2022-09-28T12:43:45.700Z,56.05
2022-09-28T12:46:47.617Z,54.34
2022-09-28T12:50:37.440Z,57.30
2022-09-28T12:53:19.942Z,56.09
2022-09-28T12:56:04.244Z,55.83
2022-09-28T12:58:45.655Z,55.28
2022-09-28T13:01:31.262Z,56.42
2022-09-28T13:04:44.879Z,57.93
2022-09-28T13:07:39.019Z,59.54
2022-09-28T13:10:45.887Z,52.54
2022-09-28T13:13:32.701Z,52.27
2022-09-28T13:16:43.201Z,53.45
2022-09-28T13:19:42.291Z,54.07
2022-09-28T13:22:45.447Z,52.58
2022-09-28T13:25:17.835Z,51.23
2022-09-28T13:28:15.463Z,54.00
2022-09-28T13:30:45.882Z,54.60
2022-09-28T13:33:26.244Z,51.64
2022-09-28T13:35:52.793Z,51.91
2022-09-28T13:38:19.223Z,52.14
2022-09-28T13:41:13.135Z,47.81
2022-09-28T13:43:48.800Z,43.03
2022-09-28T13:46:49.527Z,44.05
2022-09-28T13:49:56.503Z,42.87
2022-09-28T13:52:47.436Z,43.96
2022-09-28T13:55:33.373Z,42.24
2022-09-28T13:58:26.267Z,39.96
2022-09-28T14:01:04.790Z,42.45
2022-09-28T14:04:17.102Z,49.08
2022-09-28T14:07:36.272Z,46.03
2022-09-28T14:10:25.744Z,41.89
2022-09-28T14:12:54.343Z,39.79
2022-09-28T14:15:30.003Z,39.25
2022-09-28T14:18:26.674Z,40.71
2022-09-28T14:21:02.048Z,39.59
2022-09-28T14:23:59.001Z,38.42
2022-09-28T14:27:06.962Z,40.89
2022-09-28T14:29:39.816Z,44.63
2022-09-28T14:32:09.387Z,44.62
2022-09-28T14:34:47.102Z,47.32
2022-09-28T14:37:49.031Z,51.57
2022-09-28T14:40:49.632Z,52.74
2022-09-28T14:43:45.444Z,51.90
2022-09-28T14:46:12.813Z,53.34
2022-09-28T14:49:05.344Z,54.50
2022-09-28T14:51:35.413Z,54.80
2022-09-28T14:54:07.727Z,50.86
2022-09-28T14:56:45.693Z,51.00
2022-09-28T14:59:26.782Z,51.92
2022-09-28T15:02:37.191Z,51.55
2022-09-28T15:05:10.791Z,51.15
2022-09-28T15:07:49.463Z,52.49
2022-09-28T15:10:33.045Z,52.59
2022-09-28T15:13:05.296Z,53.16
2022-09-28T15:15:38.088Z,50.64
2022-09-28T15:18:19.197Z,53.29
2022-09-28T15:20:48.181Z,53.54
2022-09-28T15:23:47.919Z,51.81
2022-09-28T15:26:34.848Z,53.83
2022-09-28T15:29:03.345Z,52.67
2022-09-28T15:31:36.020Z,53.80
2022-09-28T15:34:21.574Z,53.80
2022-09-28T15:36:48.463Z,51.64
2022-09-28T15:39:33.953Z,51.94
2022-09-28T15:42:00.705Z,52.24
2022-09-28T15:44:38.228Z,54.08
2022-09-28T15:47:26.421Z,54.46
2022-09-28T15:50:00.486Z,53.88
2022-09-28T15:53:02.985Z,53.19
2022-09-28T15:55:34.747Z,54.72
2022-09-28T15:58:06.163Z,57.86
2022-09-28T16:00:33.082Z,55.05
2022-09-28T16:03:08.901Z,56.01
2022-09-28T16:05:49.905Z,57.35
2022-09-28T16:08:37.337Z,59.04
2022-09-28T16:11:27.753Z,57.12
2022-09-28T16:14:20.983Z,58.80
2022-09-28T16:16:53.047Z,58.12
2022-09-28T16:19:26.278Z,57.56
2022-09-28T16:21:56.735Z,57.89
2022-09-28T16:24:30.462Z,58.60
2022-09-28T16:27:29.395Z,58.46
2022-09-28T16:30:28.662Z,59.69
2022-09-28T16:32:59.278Z,60.53
2022-09-28T16:35:39.998Z,59.17
2022-09-28T16:38:11.403Z,61.29
2022-09-28T16:40:42.432Z,60.82
2022-09-28T16:43:16.120Z,59.90
2022-09-28T16:45:42.856Z,61.01
2022-09-28T16:48:19.225Z,60.88
2022-09-28T16:50:46.552Z,59.37
2022-09-28T16:53:35.541Z,59.22
2022-09-28T16:56:04.608Z,59.75
2022-09-28T16:58:31.866Z,59.79
2022-09-28T17:00:59.909Z,60.54
2022-09-28T17:03:28.237Z,60.12
2022-09-28T17:05:55.465Z,61.22
2022-09-28T17:08:25.524Z,60.98
2022-09-28T17:11:14.930Z,60.61
2022-09-28T17:13:43.975Z,62.72
2022-09-28T17:16:15.368Z,62.16
2022-09-28T17:18:42.136Z,61.78
2022-09-28T17:21:17.194Z,62.34
2022-09-28T17:23:55.408Z,64.00
2022-09-28T17:26:30.553Z,62.67
2022-09-28T17:29:14.176Z,62.46
2022-09-28T17:31:46.121Z,63.98
2022-09-28T17:34:17.402Z,64.23
2022-09-28T17:36:57.417Z,66.80
2022-09-28T17:39:26.306Z,65.99
2022-09-28T17:42:03.963Z,66.19
2022-09-28T17:44:30.703Z,66.16
2022-09-28T17:47:00.647Z,67.94
2022-09-28T17:49:29.646Z,65.97
2022-09-28T17:51:56.259Z,67.45
2022-09-28T17:54:57.670Z,67.78
2022-09-28T17:57:42.770Z,67.38
2022-09-28T18:00:13.325Z,67.84
2022-09-28T18:02:41.374Z,68.67
2022-09-28T18:05:10.399Z,68.06
2022-09-28T18:07:38.473Z,70.32
2022-09-28T18:10:06.963Z,71.20
2022-09-28T18:12:34.435Z,70.11
2022-09-28T18:15:01.201Z,70.32
2022-09-28T18:17:30.104Z,71.02
2022-09-28T18:19:57.101Z,69.28
2022-09-28T18:22:24.403Z,69.63
2022-09-28T18:24:51.080Z,69.33
2022-09-28T18:27:17.699Z,69.43
2022-09-28T18:29:44.402Z,71.22
2022-09-28T18:32:10.950Z,70.98
2022-09-28T18:34:38.575Z,69.35
2022-09-28T18:37:06.184Z,69.87
2022-09-28T18:39:35.042Z,70.79
2022-09-28T18:42:02.532Z,70.88
2022-09-28T18:44:29.190Z,70.94
2022-09-28T18:46:55.857Z,71.44
2022-09-28T18:49:23.768Z,72.53
2022-09-28T18:51:50.542Z,71.78
2022-09-28T18:54:38.415Z,72.06
2022-09-28T18:57:07.210Z,73.48
2022-09-28T18:59:34.031Z,74.05
2022-09-28T19:02:02.095Z,73.57
2022-09-28T19:04:28.928Z,73.22
2022-09-28T19:06:55.842Z,72.27
2022-09-28T19:09:24.620Z,72.18
2022-09-28T19:11:51.351Z,73.05
2022-09-28T19:14:18.170Z,73.82
2022-09-28T19:16:45.690Z,74.38
2022-09-28T19:19:17.504Z,72.89
2022-09-28T19:21:44.350Z,72.94
2022-09-28T19:24:17.693Z,73.68
2022-09-28T19:26:46.406Z,74.03
2022-09-28T19:29:14.458Z,73.50
2022-09-28T19:31:43.333Z,73.97
2022-09-28T19:34:13.396Z,74.86
2022-09-28T19:36:45.637Z,75.25
2022-09-28T19:39:15.646Z,76.27
2022-09-28T19:41:51.324Z,76.20
2022-09-28T19:44:25.374Z,76.05
2022-09-28T19:47:13.001Z,76.73
2022-09-28T19:49:40.646Z,77.03
2022-09-28T19:52:16.829Z,76.91
2022-09-28T19:55:00.382Z,77.81
2022-09-28T19:57:31.657Z,78.46
2022-09-28T20:00:02.720Z,78.49
2022-09-28T20:02:29.989Z,77.97
2022-09-28T20:04:56.691Z,77.82
2022-09-28T20:07:23.361Z,77.74
2022-09-28T20:09:49.915Z,77.83
2022-09-28T20:12:16.436Z,77.59
2022-09-28T20:14:43.062Z,77.52
2022-09-28T20:17:09.893Z,77.43
2022-09-28T20:19:36.617Z,77.51
2022-09-28T20:22:03.804Z,77.95
2022-09-28T20:24:31.569Z,77.71
2022-09-28T20:26:58.606Z,77.55
2022-09-28T20:29:25.246Z,77.59
2022-09-28T20:31:52.210Z,77.80
2022-09-28T20:34:19.358Z,77.99
2022-09-28T20:36:45.899Z,77.62
2022-09-28T20:39:13.043Z,78.49
2022-09-28T20:41:41.759Z,78.83
2022-09-28T20:44:08.375Z,78.75
2022-09-28T20:46:35.867Z,78.66
2022-09-28T20:49:04.479Z,78.86
2022-09-28T20:51:32.096Z,79.18
2022-09-28T20:53:59.723Z,79.13
2022-09-28T20:56:30.484Z,78.97
2022-09-28T20:58:57.562Z,79.07
2022-09-28T21:01:28.533Z,79.37
2022-09-28T21:03:58.728Z,78.89
2022-09-28T21:06:30.898Z,79.24
2022-09-28T21:08:58.331Z,79.21
2022-09-28T21:11:30.118Z,79.61
2022-09-28T21:14:00.485Z,79.72
2022-09-28T21:16:30.157Z,79.39
2022-09-28T21:18:59.399Z,79.12
2022-09-28T21:21:26.999Z,79.30
2022-09-28T21:23:55.565Z,79.40
2022-09-28T21:26:25.896Z,79.41
2022-09-28T21:28:59.390Z,79.79
2022-09-28T21:31:31.334Z,79.79
2022-09-28T21:33:58.554Z,79.43
2022-09-28T21:36:25.905Z,79.35
2022-09-28T21:38:54.110Z,79.87
2022-09-28T21:41:20.906Z,79.56
2022-09-28T21:43:47.488Z,79.56
2022-09-28T21:46:14.137Z,79.84
2022-09-28T21:48:40.992Z,80.17
2022-09-28T21:51:15.284Z,80.32
2022-09-28T21:53:42.712Z,80.19
2022-09-28T21:56:12.355Z,80.13
2022-09-28T21:58:40.917Z,79.90
2022-09-28T22:01:16.474Z,80.00
2022-09-28T22:03:47.356Z,80.28
2022-09-28T22:06:16.978Z,80.48
2022-09-28T22:08:43.939Z,80.77
2022-09-28T22:11:15.372Z,80.61
2022-09-28T22:13:49.274Z,81.22
2022-09-28T22:16:19.320Z,80.10
2022-09-28T22:18:46.368Z,79.99
2022-09-28T22:21:20.586Z,79.98
2022-09-28T22:23:50.058Z,78.42
2022-09-28T22:26:24.638Z,79.03
2022-09-28T22:28:55.410Z,79.23
2022-09-28T22:31:28.862Z,79.95
2022-09-28T22:33:57.047Z,80.73
2022-09-28T22:36:25.797Z,81.58
2022-09-28T22:38:54.339Z,81.89
2022-09-28T22:41:21.585Z,81.86
2022-09-28T22:43:50.727Z,81.03
2022-09-28T22:46:24.188Z,81.43
2022-09-28T22:48:57.856Z,80.85
2022-09-28T22:51:29.761Z,80.94
2022-09-28T22:53:56.983Z,80.28
2022-09-28T22:56:26.051Z,80.96
2022-09-28T22:58:53.773Z,80.99
2022-09-28T23:01:25.031Z,81.16
2022-09-28T23:03:54.353Z,81.03
2022-09-28T23:06:25.902Z,81.58
2022-09-28T23:08:53.269Z,81.67
2022-09-28T23:11:20.692Z,82.02
2022-09-28T23:13:56.500Z,80.91
2022-09-28T23:16:25.561Z,80.79
2022-09-28T23:18:54.591Z,81.50
2022-09-28T23:21:25.912Z,81.80
2022-09-28T23:24:03.358Z,80.77
2022-09-28T23:26:33.109Z,80.67
2022-09-28T23:29:00.296Z,81.06
2022-09-28T23:31:32.966Z,81.47
2022-09-28T23:34:03.287Z,83.01
2022-09-28T23:36:30.629Z,82.60
2022-09-28T23:38:58.298Z,82.38
2022-09-28T23:41:25.699Z,82.02
2022-09-28T23:43:52.313Z,81.39
2022-09-28T23:46:20.985Z,82.56
2022-09-28T23:48:49.236Z,82.28
2022-09-28T23:51:16.076Z,81.79
2022-09-28T23:53:43.271Z,81.41
2022-09-28T23:56:09.908Z,81.17
2022-09-28T23:58:36.482Z,82.60
